createdAt,value
2019-04-29T00:00:59.213Z,61.80
2019-04-29T00:02:01.904Z,62.10
2019-04-29T00:03:04.589Z,62.30
2019-04-29T00:04:07.377Z,62.90
2019-04-29T00:05:10.561Z,62.90
2019-04-29T00:06:13.220Z,63.30
2019-04-29T00:07:15.885Z,63.90
2019-04-29T00:08:18.525Z,63.80
2019-04-29T00:09:21.741Z,63.10
2019-04-29T00:10:25.371Z,62.80
2019-04-29T00:11:28.014Z,63.70
2019-04-29T00:12:31.125Z,64.00
2019-04-29T00:13:34.235Z,63.80
2019-04-29T00:14:38.468Z,63.90
2019-04-29T00:15:52.730Z,63.70
2019-04-29T00:17:01.712Z,63.70
2019-04-29T00:18:09.339Z,64.00
2019-04-29T00:19:29.874Z,64.80
2019-04-29T00:20:40.880Z,64.70
2019-04-29T00:21:43.538Z,64.60
2019-04-29T00:22:46.514Z,64.50
2019-04-29T00:23:57.194Z,64.30
2019-04-29T00:24:53.789Z,64.50
2019-04-29T00:25:56.487Z,64.70
2019-04-29T00:26:59.570Z,64.80
2019-04-29T00:28:02.757Z,64.50
2019-04-29T00:29:05.439Z,64.20
2019-04-29T00:30:10.913Z,64.00
2019-04-29T00:31:14.201Z,63.50
2019-04-29T00:32:16.873Z,64.00
2019-04-29T00:33:22.425Z,63.80
2019-04-29T00:34:25.138Z,63.40
2019-04-29T00:35:28.378Z,63.90
2019-04-29T00:36:36.997Z,64.00
2019-04-29T00:38:04.825Z,64.70
2019-04-29T00:39:25.460Z,64.60
2019-04-29T00:40:45.618Z,64.00
2019-04-29T00:42:10.566Z,63.80
2019-04-29T00:43:20.975Z,63.10
2019-04-29T00:44:24.118Z,63.00
2019-04-29T00:45:26.745Z,62.90
2019-04-29T00:46:29.525Z,63.50
2019-04-29T00:47:32.229Z,64.20
2019-04-29T00:48:35.425Z,63.50
2019-04-29T00:49:38.713Z,62.90
2019-04-29T00:50:41.429Z,63.60
2019-04-29T00:51:44.089Z,63.80
2019-04-29T00:52:47.642Z,63.90
2019-04-29T00:53:52.419Z,63.90
2019-04-29T00:55:01.221Z,63.20
2019-04-29T00:56:04.941Z,63.10
2019-04-29T00:57:07.993Z,63.00
2019-04-29T00:58:10.638Z,63.10
2019-04-29T00:59:13.289Z,63.00
2019-04-29T01:00:25.573Z,63.70
2019-04-29T01:01:28.414Z,63.90
2019-04-29T01:02:31.354Z,63.40
2019-04-29T01:03:33.977Z,63.30
2019-04-29T01:04:36.766Z,63.50
2019-04-29T01:05:39.436Z,63.90
2019-04-29T01:06:42.101Z,63.50
2019-04-29T01:07:44.780Z,64.00
2019-04-29T01:08:47.416Z,63.90
2019-04-29T01:09:50.074Z,63.50
2019-04-29T01:10:52.989Z,63.00
2019-04-29T01:11:55.641Z,63.30
2019-04-29T01:12:58.321Z,63.00
2019-04-29T01:14:00.973Z,62.70
2019-04-29T01:15:04.398Z,63.00
2019-04-29T01:16:07.036Z,63.00
2019-04-29T01:17:09.692Z,63.90
2019-04-29T01:18:12.525Z,64.00
2019-04-29T01:19:15.624Z,64.00
2019-04-29T01:20:18.394Z,64.40
2019-04-29T01:21:21.042Z,64.20
2019-04-29T01:22:24.042Z,64.40
2019-04-29T01:23:26.890Z,64.60
2019-04-29T01:24:29.626Z,64.00
2019-04-29T01:25:32.503Z,63.60
2019-04-29T01:27:03.504Z,62.90
2019-04-29T01:28:16.225Z,63.40
2019-04-29T01:29:19.409Z,64.40
2019-04-29T01:30:57.653Z,63.70
2019-04-29T01:32:00.660Z,64.20
2019-04-29T01:33:03.805Z,65.00
2019-04-29T01:34:15.764Z,64.40
2019-04-29T01:35:18.409Z,63.60
2019-04-29T01:36:29.899Z,63.30
2019-04-29T01:37:37.787Z,64.60
2019-04-29T01:38:40.444Z,64.30
2019-04-29T01:39:48.554Z,64.10
2019-04-29T01:41:04.412Z,64.30
2019-04-29T01:42:12.767Z,63.70
2019-04-29T01:43:15.434Z,63.80
2019-04-29T01:44:18.093Z,64.00
2019-04-29T01:45:21.161Z,64.00
2019-04-29T01:46:23.805Z,64.20
2019-04-29T01:47:26.737Z,64.00
2019-04-29T01:48:29.477Z,63.90
2019-04-29T01:49:32.363Z,64.00
2019-04-29T01:50:35.033Z,64.10
2019-04-29T01:51:37.740Z,63.80
2019-04-29T01:52:40.392Z,64.00
2019-04-29T01:53:43.914Z,64.10
2019-04-29T01:54:46.590Z,64.10
2019-04-29T01:55:49.285Z,64.40
2019-04-29T01:56:51.935Z,64.00
2019-04-29T01:57:55.212Z,63.40
2019-04-29T01:58:57.813Z,63.20
2019-04-29T02:00:00.452Z,62.50
2019-04-29T02:01:03.119Z,62.00
2019-04-29T02:02:06.235Z,61.70
2019-04-29T02:03:09.430Z,62.50
2019-04-29T02:04:12.137Z,61.60
2019-04-29T02:05:14.807Z,61.80
2019-04-29T02:06:17.506Z,62.10
2019-04-29T02:07:20.071Z,62.60
2019-04-29T02:08:22.717Z,62.70
2019-04-29T02:09:38.999Z,62.30
2019-04-29T02:10:41.580Z,62.10
2019-04-29T02:11:44.685Z,62.00
2019-04-29T02:12:47.322Z,62.50
2019-04-29T02:13:49.953Z,62.50
2019-04-29T02:14:52.674Z,62.20
2019-04-29T02:15:55.690Z,62.70
2019-04-29T02:16:58.334Z,63.50
2019-04-29T02:18:00.999Z,62.50
2019-04-29T02:19:03.642Z,62.10
2019-04-29T02:20:06.993Z,61.60
2019-04-29T02:21:09.654Z,62.00
2019-04-29T02:22:34.593Z,62.50
2019-04-29T02:23:51.665Z,61.70
2019-04-29T02:24:58.001Z,62.40
2019-04-29T02:26:00.661Z,63.10
2019-04-29T02:27:05.696Z,63.60
2019-04-29T02:28:08.032Z,63.50
2019-04-29T02:29:10.675Z,62.80
2019-04-29T02:30:30.205Z,62.50
2019-04-29T02:31:38.941Z,62.70
2019-04-29T02:32:42.384Z,63.60
2019-04-29T02:33:45.029Z,64.00
2019-04-29T02:34:47.682Z,63.20
2019-04-29T02:35:50.372Z,62.50
2019-04-29T02:36:53.486Z,63.10
2019-04-29T02:37:56.149Z,63.20
2019-04-29T02:39:26.934Z,62.50
2019-04-29T02:40:36.726Z,62.10
2019-04-29T02:41:57.812Z,62.20
2019-04-29T02:43:06.697Z,62.30
2019-04-29T02:44:09.846Z,62.60
2019-04-29T02:45:19.591Z,62.70
2019-04-29T02:46:22.945Z,62.80
2019-04-29T02:47:25.620Z,62.90
2019-04-29T02:48:30.239Z,63.00
2019-04-29T02:49:32.873Z,62.50
2019-04-29T02:50:35.554Z,62.10
2019-04-29T02:52:03.566Z,61.80
2019-04-29T02:53:06.285Z,61.10
2019-04-29T02:54:09.542Z,61.30
2019-04-29T02:55:15.561Z,61.60
2019-04-29T02:56:18.213Z,61.20
2019-04-29T02:57:27.650Z,61.30
2019-04-29T02:58:59.276Z,61.50
2019-04-29T03:00:11.300Z,61.40
2019-04-29T03:01:42.424Z,61.00
2019-04-29T03:02:57.094Z,60.90
2019-04-29T03:04:15.203Z,60.90
2019-04-29T03:05:26.305Z,60.90
2019-04-29T03:06:28.996Z,60.90
2019-04-29T03:07:32.488Z,60.90
2019-04-29T03:08:35.170Z,61.00
2019-04-29T03:09:44.448Z,61.00
2019-04-29T03:10:47.130Z,61.40
2019-04-29T03:11:50.343Z,61.20
2019-04-29T03:12:53.393Z,60.70
2019-04-29T03:13:56.059Z,60.80
2019-04-29T03:14:59.341Z,60.90
2019-04-29T03:16:02.474Z,60.20
2019-04-29T03:17:05.149Z,60.30
2019-04-29T03:18:07.808Z,60.80
2019-04-29T03:19:16.941Z,61.00
2019-04-29T03:20:28.579Z,60.60
2019-04-29T03:21:35.483Z,60.50
2019-04-29T03:22:38.326Z,60.90
2019-04-29T03:23:40.970Z,60.20
2019-04-29T03:24:44.194Z,60.50
2019-04-29T03:25:47.183Z,60.10
2019-04-29T03:26:49.827Z,60.30
2019-04-29T03:27:52.505Z,60.40
2019-04-29T03:28:55.562Z,60.70
2019-04-29T03:29:58.420Z,61.10
2019-04-29T03:31:01.293Z,61.30
2019-04-29T03:32:03.983Z,61.40
2019-04-29T03:33:06.598Z,61.20
2019-04-29T03:34:09.514Z,61.30
2019-04-29T03:35:12.246Z,61.40
2019-04-29T03:36:14.983Z,61.30
2019-04-29T03:37:17.617Z,61.60
2019-04-29T03:38:20.749Z,61.80
2019-04-29T03:39:23.383Z,61.60
2019-04-29T03:40:26.246Z,61.80
2019-04-29T03:41:28.935Z,61.20
2019-04-29T03:42:31.678Z,61.20
2019-04-29T03:43:34.439Z,61.00
2019-04-29T03:44:37.306Z,60.90
2019-04-29T03:45:39.973Z,60.90
2019-04-29T03:46:43.022Z,60.70
2019-04-29T03:47:45.774Z,61.00
2019-04-29T03:48:48.432Z,61.50
2019-04-29T03:49:51.080Z,61.80
2019-04-29T03:50:54.308Z,61.40
2019-04-29T03:51:56.978Z,61.40
2019-04-29T03:52:59.654Z,61.70
2019-04-29T03:54:02.378Z,61.40
2019-04-29T03:55:05.724Z,60.90
2019-04-29T03:56:08.382Z,61.70
2019-04-29T03:57:12.382Z,60.60
2019-04-29T03:58:15.025Z,60.40
2019-04-29T03:59:17.809Z,60.80
2019-04-29T04:00:20.425Z,61.20
2019-04-29T04:01:28.858Z,61.40
2019-04-29T04:02:38.066Z,61.20
2019-04-29T04:03:45.045Z,60.90
2019-04-29T04:05:00.841Z,60.80
2019-04-29T04:06:31.844Z,60.80
2019-04-29T04:07:59.596Z,60.50
2019-04-29T04:09:19.469Z,60.90
2019-04-29T04:10:22.217Z,60.30
2019-04-29T04:11:24.868Z,60.30
2019-04-29T04:12:30.778Z,60.40
2019-04-29T04:13:33.471Z,60.30
2019-04-29T04:14:36.192Z,60.70
2019-04-29T04:15:38.839Z,60.80
2019-04-29T04:17:20.280Z,60.90
2019-04-29T04:18:27.956Z,60.80
2019-04-29T04:19:31.265Z,60.70
2019-04-29T04:20:33.965Z,60.20
2019-04-29T04:21:36.976Z,60.70
2019-04-29T04:22:46.081Z,60.80
2019-04-29T04:23:48.728Z,61.10
2019-04-29T04:24:52.235Z,60.70
2019-04-29T04:25:55.542Z,61.10
2019-04-29T04:26:58.181Z,61.20
2019-04-29T04:28:00.808Z,60.40
2019-04-29T04:29:03.465Z,59.90
2019-04-29T04:30:07.158Z,60.20
2019-04-29T04:31:09.838Z,60.10
2019-04-29T04:32:12.473Z,59.80
2019-04-29T04:33:15.119Z,60.40
2019-04-29T04:34:18.228Z,60.70
2019-04-29T04:35:20.920Z,60.80
2019-04-29T04:36:23.902Z,60.90
2019-04-29T04:37:26.811Z,61.00
2019-04-29T04:38:29.869Z,60.60
2019-04-29T04:39:34.935Z,60.10
2019-04-29T04:40:41.778Z,60.10
2019-04-29T04:41:44.347Z,60.20
2019-04-29T04:42:47.520Z,60.50
2019-04-29T04:43:50.230Z,61.00
2019-04-29T04:44:52.880Z,60.80
2019-04-29T04:45:55.561Z,60.10
2019-04-29T04:46:58.562Z,60.00
2019-04-29T04:48:01.262Z,60.60
2019-04-29T04:49:03.905Z,60.40
2019-04-29T04:50:07.657Z,60.50
2019-04-29T04:51:10.322Z,61.00
2019-04-29T04:52:16.036Z,60.70
2019-04-29T04:53:18.712Z,60.40
2019-04-29T04:54:21.354Z,60.50
2019-04-29T04:55:26.896Z,60.60
2019-04-29T04:56:29.852Z,60.60
2019-04-29T04:57:32.520Z,60.80
2019-04-29T04:58:35.219Z,60.80
2019-04-29T04:59:37.857Z,61.00
2019-04-29T05:00:41.171Z,60.80
2019-04-29T05:01:43.830Z,60.30
2019-04-29T05:02:46.504Z,60.30
2019-04-29T05:03:49.169Z,60.20
2019-04-29T05:04:52.750Z,60.10
2019-04-29T05:05:55.427Z,60.20
2019-04-29T05:06:58.073Z,59.90
2019-04-29T05:08:00.766Z,59.90
2019-04-29T05:09:06.578Z,60.60
2019-04-29T05:10:09.346Z,60.60
2019-04-29T05:11:12.052Z,60.10
2019-04-29T05:12:14.769Z,60.10
2019-04-29T05:13:27.932Z,60.50
2019-04-29T05:14:23.041Z,60.30
2019-04-29T05:15:25.724Z,60.40
2019-04-29T05:16:28.421Z,60.60
2019-04-29T05:17:31.235Z,60.00
2019-04-29T05:18:34.206Z,60.10
2019-04-29T05:19:36.878Z,60.20
2019-04-29T05:20:39.536Z,60.20
2019-04-29T05:21:42.615Z,60.00
2019-04-29T05:23:00.393Z,59.90
2019-04-29T05:24:03.123Z,60.10
2019-04-29T05:25:06.273Z,60.00
2019-04-29T05:26:09.506Z,59.80
2019-04-29T05:27:12.364Z,59.90
2019-04-29T05:28:15.018Z,60.00
2019-04-29T05:29:17.773Z,59.60
2019-04-29T05:30:20.959Z,59.60
2019-04-29T05:31:24.300Z,59.50
2019-04-29T05:32:26.938Z,59.40
2019-04-29T05:33:29.633Z,59.40
2019-04-29T05:34:34.089Z,59.40
2019-04-29T05:35:43.557Z,59.40
2019-04-29T05:37:05.653Z,59.40
2019-04-29T05:38:15.589Z,59.20
2019-04-29T05:39:27.500Z,59.10
2019-04-29T05:40:41.008Z,59.20
2019-04-29T05:41:43.600Z,58.90
2019-04-29T05:42:48.267Z,59.10
2019-04-29T05:43:58.528Z,59.20
2019-04-29T05:45:21.801Z,59.20
2019-04-29T05:46:35.708Z,59.20
2019-04-29T05:47:57.137Z,59.30
2019-04-29T05:48:57.282Z,59.40
2019-04-29T05:50:18.515Z,59.20
2019-04-29T05:51:40.854Z,59.20
2019-04-29T05:52:51.822Z,59.40
2019-04-29T05:53:55.980Z,59.90
2019-04-29T05:55:01.446Z,60.10
2019-04-29T05:56:04.245Z,59.90
2019-04-29T05:57:07.141Z,59.90
2019-04-29T05:58:12.504Z,59.90
2019-04-29T05:59:15.232Z,60.50
2019-04-29T06:00:23.192Z,60.00
2019-04-29T06:01:25.332Z,59.90
2019-04-29T06:02:33.652Z,59.70
2019-04-29T06:03:33.526Z,59.90
2019-04-29T06:04:37.289Z,60.10
2019-04-29T06:05:40.175Z,59.80
2019-04-29T06:06:42.870Z,59.50
2019-04-29T06:07:45.609Z,59.50
2019-04-29T06:08:48.289Z,59.30
2019-04-29T06:09:51.501Z,59.30
2019-04-29T06:10:54.541Z,59.30
2019-04-29T06:11:57.207Z,59.20
2019-04-29T06:12:59.942Z,58.80
2019-04-29T06:14:02.879Z,58.70
2019-04-29T06:15:05.810Z,58.70
2019-04-29T06:16:08.470Z,58.80
2019-04-29T06:17:11.159Z,59.00
2019-04-29T06:18:17.685Z,58.80
2019-04-29T06:19:18.774Z,58.60
2019-04-29T06:20:22.893Z,58.60
2019-04-29T06:21:25.637Z,58.50
2019-04-29T06:22:28.727Z,58.40
2019-04-29T06:23:31.385Z,58.40
2019-04-29T06:24:36.897Z,58.30
2019-04-29T06:25:38.557Z,58.30
2019-04-29T06:26:43.619Z,58.10
2019-04-29T06:27:45.837Z,57.90
2019-04-29T06:28:48.536Z,57.90
2019-04-29T06:29:51.494Z,57.90
2019-04-29T06:30:54.183Z,57.70
2019-04-29T06:31:56.972Z,57.40
2019-04-29T06:32:59.649Z,57.30
2019-04-29T06:34:05.223Z,57.30
2019-04-29T06:35:10.533Z,57.40
2019-04-29T06:36:11.546Z,57.20
2019-04-29T06:37:14.237Z,57.90
2019-04-29T06:38:16.923Z,57.20
2019-04-29T06:39:19.612Z,56.70
2019-04-29T06:40:22.520Z,56.90
2019-04-29T06:41:25.319Z,57.00
2019-04-29T06:42:27.971Z,57.00
2019-04-29T06:43:30.819Z,56.90
2019-04-29T06:44:33.496Z,56.60
2019-04-29T06:45:36.181Z,56.30
2019-04-29T06:46:38.922Z,56.40
2019-04-29T06:47:41.737Z,56.30
2019-04-29T06:48:44.439Z,56.10
2019-04-29T06:49:47.092Z,56.00
2019-04-29T06:50:49.934Z,56.00
2019-04-29T06:51:52.718Z,55.90
2019-04-29T06:52:55.442Z,55.90
2019-04-29T06:53:58.104Z,56.00
2019-04-29T06:55:00.774Z,55.80
2019-04-29T06:56:03.530Z,55.70
2019-04-29T06:57:06.414Z,55.30
2019-04-29T06:58:09.102Z,55.30
2019-04-29T06:59:13.641Z,55.20
2019-04-29T07:00:17.672Z,55.50
2019-04-29T07:01:20.945Z,55.70
2019-04-29T07:02:24.145Z,55.20
2019-04-29T07:03:26.857Z,54.90
2019-04-29T07:04:30.714Z,55.00
2019-04-29T07:05:33.957Z,55.30
2019-04-29T07:06:36.621Z,55.30
2019-04-29T07:07:39.349Z,55.00
2019-04-29T07:08:42.002Z,55.00
2019-04-29T07:09:44.673Z,54.90
2019-04-29T07:10:47.313Z,54.80
2019-04-29T07:11:50.004Z,54.90
2019-04-29T07:12:52.676Z,54.70
2019-04-29T07:13:57.597Z,54.50
2019-04-29T07:15:00.294Z,54.00
2019-04-29T07:16:03.114Z,54.00
2019-04-29T07:17:07.142Z,54.10
2019-04-29T07:18:09.968Z,54.10
2019-04-29T07:19:12.903Z,54.30
2019-04-29T07:20:16.427Z,54.40
2019-04-29T07:21:19.160Z,54.40
2019-04-29T07:22:25.883Z,54.20
2019-04-29T07:23:26.389Z,54.00
2019-04-29T07:24:29.139Z,54.00
2019-04-29T07:25:31.834Z,53.60
2019-04-29T07:26:34.512Z,53.20
2019-04-29T07:27:42.975Z,53.20
2019-04-29T07:28:41.717Z,53.10
2019-04-29T07:29:44.357Z,53.00
2019-04-29T07:31:01.238Z,52.80
2019-04-29T07:31:51.477Z,52.70
2019-04-29T07:32:54.147Z,52.30
2019-04-29T07:33:58.001Z,51.90
2019-04-29T07:35:01.381Z,51.70
2019-04-29T07:36:10.817Z,51.80
2019-04-29T07:37:08.636Z,51.90
2019-04-29T07:38:11.281Z,51.90
2019-04-29T07:39:13.971Z,51.60
2019-04-29T07:40:17.059Z,51.60
2019-04-29T07:41:20.842Z,51.80
2019-04-29T07:42:25.030Z,52.10
2019-04-29T07:43:28.004Z,52.40
2019-04-29T07:44:43.626Z,52.20
2019-04-29T07:45:58.739Z,51.70
2019-04-29T07:47:02.278Z,51.40
2019-04-29T07:48:06.319Z,51.40
2019-04-29T07:49:12.869Z,51.70
2019-04-29T07:50:14.441Z,52.10
2019-04-29T07:51:17.104Z,51.20
2019-04-29T07:52:19.776Z,51.20
2019-04-29T07:53:34.538Z,51.20
2019-04-29T07:54:27.216Z,51.20
2019-04-29T07:55:30.979Z,51.20
2019-04-29T07:56:37.774Z,50.80
2019-04-29T07:57:38.951Z,50.70
2019-04-29T07:58:41.927Z,50.80
2019-04-29T07:59:44.617Z,50.80
2019-04-29T08:00:48.854Z,50.80
2019-04-29T08:01:55.664Z,51.20
2019-04-29T08:02:56.957Z,51.60
2019-04-29T08:03:59.612Z,51.80
2019-04-29T08:05:02.285Z,51.90
2019-04-29T08:06:05.905Z,51.90
2019-04-29T08:07:08.951Z,51.70
2019-04-29T08:08:11.659Z,51.30
2019-04-29T08:09:14.385Z,51.20
2019-04-29T08:10:23.718Z,51.20
2019-04-29T08:11:24.689Z,50.70
2019-04-29T08:12:29.432Z,50.70
2019-04-29T08:13:32.864Z,51.00
2019-04-29T08:14:37.065Z,51.10
2019-04-29T08:15:41.424Z,51.30
2019-04-29T08:16:44.813Z,51.30
2019-04-29T08:17:47.584Z,51.20
2019-04-29T08:18:53.567Z,51.20
2019-04-29T08:19:54.981Z,51.20
2019-04-29T08:20:57.741Z,51.10
2019-04-29T08:22:00.542Z,51.10
2019-04-29T08:23:04.157Z,50.40
2019-04-29T08:24:07.234Z,50.40
2019-04-29T08:25:10.201Z,50.60
2019-04-29T08:26:12.882Z,51.50
2019-04-29T08:27:15.601Z,51.00
2019-04-29T08:28:18.248Z,50.50
2019-04-29T08:29:21.261Z,50.00
2019-04-29T08:30:23.913Z,49.90
2019-04-29T08:31:26.619Z,50.00
2019-04-29T08:32:31.587Z,50.00
2019-04-29T08:33:34.540Z,50.10
2019-04-29T08:34:37.257Z,49.70
2019-04-29T08:35:39.893Z,49.80
2019-04-29T08:36:42.531Z,49.60
2019-04-29T08:37:45.849Z,49.60
2019-04-29T08:38:48.492Z,49.70
2019-04-29T08:40:08.343Z,49.90
2019-04-29T08:40:55.628Z,50.00
2019-04-29T08:42:03.736Z,50.10
2019-04-29T08:43:29.060Z,50.40
2019-04-29T08:44:59.675Z,50.30
2019-04-29T08:46:06.270Z,50.20
2019-04-29T08:47:16.260Z,50.00
2019-04-29T08:48:18.960Z,50.10
2019-04-29T08:49:22.039Z,49.70
2019-04-29T08:50:25.101Z,49.50
2019-04-29T08:51:27.829Z,49.20
2019-04-29T08:52:30.570Z,49.20
2019-04-29T08:53:33.200Z,49.40
2019-04-29T08:54:37.255Z,49.70
2019-04-29T08:55:40.026Z,49.90
2019-04-29T08:57:01.732Z,49.60
2019-04-29T08:57:47.297Z,49.00
2019-04-29T08:58:51.158Z,48.80
2019-04-29T08:59:53.943Z,48.70
2019-04-29T09:00:57.631Z,48.40
2019-04-29T09:02:00.450Z,48.40
2019-04-29T09:03:03.251Z,48.30
2019-04-29T09:04:06.165Z,48.40
2019-04-29T09:05:11.400Z,48.40
2019-04-29T09:06:13.995Z,48.40
2019-04-29T09:07:17.455Z,48.50
2019-04-29T09:08:21.583Z,48.70
2019-04-29T09:09:29.310Z,49.00
2019-04-29T09:10:33.028Z,49.00
2019-04-29T09:11:35.943Z,48.80
2019-04-29T09:12:38.903Z,48.80
2019-04-29T09:13:41.648Z,48.70
2019-04-29T09:14:44.313Z,48.60
2019-04-29T09:15:47.032Z,48.60
2019-04-29T09:16:50.417Z,48.70
2019-04-29T09:17:53.095Z,48.70
2019-04-29T09:18:55.801Z,48.50
2019-04-29T09:19:58.508Z,48.20
2019-04-29T09:21:01.477Z,48.10
2019-04-29T09:22:06.433Z,47.90
2019-04-29T09:23:11.845Z,48.00
2019-04-29T09:24:14.677Z,47.80
2019-04-29T09:25:37.000Z,47.60
2019-04-29T09:26:44.530Z,47.20
2019-04-29T09:27:47.655Z,47.30
2019-04-29T09:28:50.469Z,48.00
2019-04-29T09:29:54.209Z,48.50
2019-04-29T09:30:57.659Z,48.60
2019-04-29T09:32:00.497Z,48.60
2019-04-29T09:33:03.241Z,48.70
2019-04-29T09:34:07.110Z,48.50
2019-04-29T09:35:10.305Z,48.50
2019-04-29T09:36:13.855Z,48.10
2019-04-29T09:37:18.662Z,47.60
2019-04-29T09:38:22.369Z,48.20
2019-04-29T09:39:25.045Z,47.20
2019-04-29T09:40:29.608Z,46.90
2019-04-29T09:41:39.850Z,47.20
2019-04-29T09:43:00.829Z,47.20
2019-04-29T09:44:41.085Z,46.90
2019-04-29T09:46:18.514Z,46.90
2019-04-29T09:47:21.421Z,46.30
2019-04-29T09:48:24.093Z,46.00
2019-04-29T09:49:26.749Z,46.10
2019-04-29T09:50:29.433Z,45.90
2019-04-29T09:51:32.645Z,45.80
2019-04-29T09:52:35.317Z,46.10
2019-04-29T09:53:38.060Z,46.50
2019-04-29T09:54:40.776Z,46.70
2019-04-29T09:55:43.793Z,46.90
2019-04-29T09:56:46.537Z,47.10
2019-04-29T09:57:49.241Z,47.00
2019-04-29T09:59:11.356Z,47.20
2019-04-29T10:00:22.949Z,47.80
2019-04-29T10:01:36.410Z,47.80
2019-04-29T10:03:04.237Z,47.70
2019-04-29T10:04:26.572Z,48.00
2019-04-29T10:05:41.602Z,48.40
2019-04-29T10:06:45.075Z,48.60
2019-04-29T10:07:47.725Z,48.90
2019-04-29T10:08:50.981Z,48.70
2019-04-29T10:09:57.282Z,48.70
2019-04-29T10:10:58.186Z,48.50
2019-04-29T10:12:00.854Z,48.40
2019-04-29T10:13:04.657Z,48.40
2019-04-29T10:14:08.293Z,48.40
2019-04-29T10:15:12.977Z,48.20
2019-04-29T10:16:23.140Z,48.10
2019-04-29T10:17:36.408Z,48.20
2019-04-29T10:18:55.382Z,48.30
2019-04-29T10:20:03.079Z,48.30
2019-04-29T10:21:08.325Z,48.00
2019-04-29T10:22:11.110Z,47.50
2019-04-29T10:23:13.798Z,47.10
2019-04-29T10:24:16.486Z,47.20
2019-04-29T10:25:19.274Z,47.40
2019-04-29T10:26:22.412Z,47.60
2019-04-29T10:27:25.072Z,47.70
2019-04-29T10:28:27.739Z,48.00
2019-04-29T10:29:31.464Z,47.50
2019-04-29T10:30:34.526Z,47.30
2019-04-29T10:31:37.281Z,47.30
2019-04-29T10:32:42.373Z,46.80
2019-04-29T10:33:44.410Z,47.00
2019-04-29T10:34:47.677Z,47.40
2019-04-29T10:35:50.369Z,47.70
2019-04-29T10:36:53.754Z,47.70
2019-04-29T10:37:56.498Z,47.90
2019-04-29T10:39:04.661Z,48.40
2019-04-29T10:40:32.829Z,48.70
2019-04-29T10:41:40.391Z,48.50
2019-04-29T10:42:51.633Z,48.40
2019-04-29T10:44:12.446Z,48.10
2019-04-29T10:45:34.508Z,47.90
2019-04-29T10:46:59.505Z,48.00
2019-04-29T10:48:13.281Z,47.90
2019-04-29T10:49:21.862Z,48.20
2019-04-29T10:50:30.662Z,48.60
2019-04-29T10:51:33.421Z,48.80
2019-04-29T10:52:38.618Z,49.00
2019-04-29T10:53:41.582Z,48.90
2019-04-29T10:54:44.266Z,48.80
2019-04-29T10:55:47.115Z,48.90
2019-04-29T10:56:50.209Z,49.10
2019-04-29T10:57:53.100Z,49.10
2019-04-29T10:58:55.942Z,49.20
2019-04-29T11:00:05.864Z,49.20
2019-04-29T11:02:13.325Z,49.20
2019-04-29T11:03:11.393Z,49.40
2019-04-29T11:04:14.074Z,50.00
2019-04-29T11:05:34.677Z,49.90
2019-04-29T11:06:37.453Z,49.70
2019-04-29T11:07:40.439Z,49.90
2019-04-29T11:08:53.140Z,49.70
2019-04-29T11:09:59.833Z,49.90
2019-04-29T11:11:02.807Z,50.00
2019-04-29T11:12:08.928Z,50.00
2019-04-29T11:13:11.623Z,50.20
2019-04-29T11:14:14.325Z,50.70
2019-04-29T11:15:19.062Z,50.50
2019-04-29T11:16:23.073Z,50.20
2019-04-29T11:17:27.133Z,50.00
2019-04-29T11:18:30.425Z,49.70
2019-04-29T11:19:35.152Z,49.60
2019-04-29T11:20:37.889Z,49.80
2019-04-29T11:21:40.540Z,49.70
2019-04-29T11:22:48.966Z,49.80
2019-04-29T11:24:22.821Z,49.80
2019-04-29T11:25:43.415Z,49.80
2019-04-29T11:26:51.337Z,49.60
2019-04-29T11:27:56.153Z,49.50
2019-04-29T11:28:59.202Z,49.60
2019-04-29T11:30:02.944Z,49.50
2019-04-29T11:31:09.874Z,49.40
2019-04-29T11:41:06.629Z,49.90
2019-04-29T11:42:09.336Z,50.10
2019-04-29T11:43:15.614Z,50.20
2019-04-29T11:44:17.186Z,50.20
2019-04-29T11:45:20.410Z,50.20
2019-04-29T11:46:23.390Z,50.20
2019-04-29T11:47:26.336Z,50.90
2019-04-29T11:48:29.030Z,50.40
2019-04-29T11:49:51.222Z,50.30
2019-04-29T11:51:02.019Z,50.30
2019-04-29T11:52:09.651Z,50.10
2019-04-29T11:53:11.289Z,50.00
2019-04-29T11:54:17.956Z,50.00
2019-04-29T11:55:20.126Z,50.10
2019-04-29T11:56:22.831Z,50.00
2019-04-29T11:57:41.038Z,50.00
2019-04-29T11:58:48.951Z,50.00
2019-04-29T12:00:17.746Z,50.00
2019-04-29T12:01:38.826Z,50.00
2019-04-29T12:02:48.057Z,50.00
2019-04-29T12:03:51.571Z,50.00
2019-04-29T12:05:03.838Z,50.10
2019-04-29T12:06:06.017Z,50.00
2019-04-29T12:07:08.729Z,50.00
2019-04-29T12:08:16.759Z,50.30
2019-04-29T12:09:16.041Z,50.30
2019-04-29T12:10:19.001Z,50.20
2019-04-29T12:11:22.890Z,50.30
2019-04-29T12:12:25.689Z,50.20
2019-04-29T12:13:46.408Z,50.20
2019-04-29T12:15:03.617Z,50.30
2019-04-29T12:16:19.617Z,50.30
2019-04-29T12:17:26.510Z,50.30
2019-04-29T12:18:34.029Z,51.20
2019-04-29T12:19:38.159Z,50.60
2019-04-29T12:20:48.077Z,51.10
2019-04-29T12:21:50.851Z,50.50
2019-04-29T12:22:56.569Z,50.70
2019-04-29T12:24:00.929Z,50.70
2019-04-29T12:25:04.723Z,50.80
2019-04-29T12:26:07.387Z,50.70
2019-04-29T12:27:14.911Z,50.60
2019-04-29T12:28:19.243Z,50.80
2019-04-29T12:29:20.090Z,50.90
2019-04-29T12:30:25.706Z,51.10
2019-04-29T12:31:44.821Z,51.20
2019-04-29T12:33:09.189Z,51.40
2019-04-29T12:34:21.958Z,52.20
2019-04-29T12:35:34.354Z,51.70
2019-04-29T12:36:54.851Z,51.90
2019-04-29T12:38:05.906Z,52.10
2019-04-29T12:39:42.216Z,52.20
2019-04-29T12:40:50.188Z,52.10
2019-04-29T12:42:17.105Z,51.90
2019-04-29T12:43:41.790Z,51.70
2019-04-29T12:44:49.674Z,51.70
2019-04-29T12:46:10.373Z,51.60
2019-04-29T12:47:32.566Z,51.60
2019-04-29T12:48:35.234Z,51.60
2019-04-29T12:49:38.108Z,51.50
2019-04-29T12:50:41.016Z,51.60
2019-04-29T12:51:43.647Z,51.40
2019-04-29T12:52:46.586Z,51.30
2019-04-29T12:53:49.641Z,51.20
2019-04-29T12:54:52.515Z,51.20
2019-04-29T12:55:56.579Z,51.10
2019-04-29T12:56:59.270Z,51.10
2019-04-29T12:58:01.925Z,51.00
2019-04-29T12:59:05.479Z,50.90
2019-04-29T13:00:11.172Z,50.60
2019-04-29T13:01:49.782Z,50.60
2019-04-29T13:02:50.965Z,50.70
2019-04-29T13:04:05.519Z,50.80
2019-04-29T13:05:13.185Z,51.00
2019-04-29T13:06:23.974Z,51.20
2019-04-29T13:07:51.070Z,51.30
2019-04-29T13:08:55.901Z,51.50
2019-04-29T13:10:02.053Z,51.80
2019-04-29T13:11:06.237Z,52.00
2019-04-29T13:12:18.931Z,51.90
2019-04-29T13:13:15.689Z,51.70
2019-04-29T13:14:19.518Z,51.70
2019-04-29T13:15:43.946Z,51.60
2019-04-29T13:16:59.905Z,51.50
2019-04-29T13:18:23.417Z,51.20
2019-04-29T13:19:45.999Z,51.10
2019-04-29T13:20:50.636Z,51.10
2019-04-29T13:21:52.776Z,50.90
2019-04-29T13:22:59.017Z,50.90
2019-04-29T13:24:13.515Z,51.10
2019-04-29T13:25:07.293Z,51.30
2019-04-29T13:26:10.025Z,51.20
2019-04-29T13:27:16.340Z,51.20
2019-04-29T13:28:29.549Z,51.20
2019-04-29T13:29:27.380Z,51.50
2019-04-29T13:30:26.386Z,51.60
2019-04-29T13:31:38.228Z,51.50
2019-04-29T13:32:35.621Z,51.40
2019-04-29T13:33:38.499Z,51.30
2019-04-29T13:34:43.183Z,51.30
2019-04-29T13:35:48.598Z,51.30
2019-04-29T13:37:06.024Z,51.40
2019-04-29T13:37:55.301Z,51.30
2019-04-29T13:38:58.052Z,51.10
2019-04-29T13:40:00.762Z,51.10
2019-04-29T13:41:13.254Z,51.20
2019-04-29T13:42:15.368Z,51.20
2019-04-29T13:43:16.196Z,51.10
2019-04-29T13:44:19.731Z,51.20
2019-04-29T13:45:29.469Z,51.30
2019-04-29T13:46:53.971Z,51.10
2019-04-29T13:48:24.446Z,51.30
2019-04-29T13:49:34.698Z,51.50
2019-04-29T13:50:45.405Z,51.70
2019-04-29T13:51:48.118Z,52.00
2019-04-29T13:52:50.817Z,52.20
2019-04-29T13:53:55.456Z,52.30
2019-04-29T13:55:16.249Z,52.30
2019-04-29T13:56:11.638Z,52.40
2019-04-29T13:57:14.987Z,52.50
2019-04-29T13:58:13.152Z,52.50
2019-04-29T13:59:21.965Z,52.60
2019-04-29T14:00:44.190Z,52.60
2019-04-29T14:02:01.221Z,52.70
2019-04-29T14:03:01.549Z,52.60
2019-04-29T14:04:26.519Z,52.50
2019-04-29T14:05:32.428Z,52.00
2019-04-29T14:06:35.673Z,52.20
2019-04-29T14:07:39.576Z,52.00
2019-04-29T14:08:43.353Z,51.90
2019-04-29T14:09:47.866Z,52.00
2019-04-29T14:10:51.180Z,51.60
2019-04-29T14:12:04.284Z,51.20
2019-04-29T14:13:10.847Z,51.00
2019-04-29T14:14:06.445Z,51.10
2019-04-29T14:15:09.218Z,51.00
2019-04-29T14:16:13.028Z,51.10
2019-04-29T14:17:25.935Z,51.20
2019-04-29T14:18:21.153Z,51.20
2019-04-29T14:19:40.554Z,50.60